Time,TemperatureF,DewpointF,PressureIn,WindDirection,WindDirectionDegrees,WindSpeedMPH,WindSpeedGustMPH,Humidity,HourlyPrecipIn,Conditions,Clouds,dailyrainin,SoftwareType,DateUTC
2013-03-08 00:15:00,25.5,19.8,30.37,South,185,0.0,0.0,79,0.00,CLR,,0.00,WeatherDisplay:10.37,2013-03-08 05:15:00,
2013-03-08 00:30:00,25.3,19.7,30.37,SSW,210,0.0,0.0,79,0.00,CLR,,0.00,WeatherDisplay:10.37,2013-03-08 05:30:00,
2013-03-08 00:45:00,24.9,19.3,30.37,SW,231,0.0,0.0,79,0.00,CLR,,0.00,WeatherDisplay:10.37,2013-03-08 05:45:00,
2013-03-08 01:00:00,24.6,19.3,30.38,WSW,240,0.0,1.0,80,0.00,CLR,,0.00,WeatherDisplay:10.37,2013-03-08 06:00:00,
2013-03-08 01:15:00,24.2,18.9,30.38,WSW,237,2.0,3.0,80,0.00,CLR,,0.00,WeatherDisplay:10.37,2013-03-08 06:15:00,
2013-03-08 01:30:00,23.9,18.6,30.38,West,259,0.0,2.0,80,0.00,CLR,,0.00,WeatherDisplay:10.37,2013-03-08 06:30:00,
2013-03-08 01:45:00,23.5,18.3,30.38,NNW,345,0.0,0.0,80,0.00,CLR,,0.00,WeatherDisplay:10.37,2013-03-08 06:45:00,
2013-03-08 02:00:00,23.5,18.6,30.39,NNE,33,0.0,2.0,81,0.00,CLR,,0.00,WeatherDisplay:10.37,2013-03-08 07:00:00,
2013-03-08 02:15:00,23.3,18.0,30.39,NE,42,0.0,2.0,80,0.00,CLR,,0.00,WeatherDisplay:10.37,2013-03-08 07:15:00,
2013-03-08 02:30:00,23.0,17.7,30.39,SSE,162,0.0,0.0,80,0.00,CLR,,0.00,WeatherDisplay:10.37,2013-03-08 07:30:00,
2013-03-08 02:45:00,22.8,17.6,30.40,SSW,205,0.0,0.0,80,0.00,CLR,,0.00,WeatherDisplay:10.37,2013-03-08 07:45:00,
2013-03-08 03:00:00,22.5,17.5,30.39,ENE,61,0.0,1.0,81,0.00,CLR,,0.00,WeatherDisplay:10.37,2013-03-08 08:00:00,
2013-03-08 03:15:00,22.5,17.5,30.39,NE,37,0.0,2.0,81,0.00,CLR,,0.00,WeatherDisplay:10.37,2013-03-08 08:15:00,
2013-03-08 03:30:00,22.1,17.2,30.39,NE,44,1.0,2.0,81,0.00,CLR,,0.00,WeatherDisplay:10.37,2013-03-08 08:30:00,
2013-03-08 03:45:00,21.9,17.0,30.39,NNE,23,1.0,2.0,81,0.00,CLR,,0.00,WeatherDisplay:10.37,2013-03-08 08:45:00,
2013-03-08 04:00:00,21.7,17.1,30.39,NNE,33,1.0,2.0,82,0.00,CLR,,0.00,WeatherDisplay:10.37,2013-03-08 09:00:00,
2013-03-08 04:15:00,21.7,17.1,30.39,NE,39,1.0,2.0,82,0.00,CLR,,0.00,WeatherDisplay:10.37,2013-03-08 09:15:00,
2013-03-08 04:30:00,21.7,17.1,30.39,ENE,61,0.0,1.0,82,0.00,CLR,,0.00,WeatherDisplay:10.37,2013-03-08 09:30:00,
2013-03-08 04:45:00,21.6,17.0,30.39,NE,44,0.0,0.0,82,0.00,CLR,,0.00,WeatherDisplay:10.37,2013-03-08 09:45:00,
2013-03-08 05:00:00,21.2,16.6,30.40,NNE,31,0.0,0.0,82,0.00,CLR,,0.00,WeatherDisplay:10.37,2013-03-08 10:00:00,
2013-03-08 05:15:00,21.0,16.4,30.40,NE,47,0.0,0.0,82,0.00,CLR,,0.00,WeatherDisplay:10.37,2013-03-08 10:15:00,
2013-03-08 05:30:00,20.5,15.9,30.40,ENE,68,0.0,0.0,82,0.00,CLR,,0.00,WeatherDisplay:10.37,2013-03-08 10:30:00,
2013-03-08 05:45:00,20.5,15.9,30.40,WSW,246,0.0,1.0,82,0.00,CLR,,0.00,WeatherDisplay:10.37,2013-03-08 10:45:00,
2013-03-08 06:00:00,20.3,15.7,30.42,WSW,248,0.0,1.0,82,0.00,CLR,,0.00,WeatherDisplay:10.37,2013-03-08 11:00:00,
2013-03-08 06:15:00,20.2,15.6,30.42,SW,236,0.0,1.0,82,0.00,CLR,,0.00,WeatherDisplay:10.37,2013-03-08 11:15:00,
2013-03-08 06:30:00,19.6,15.0,30.43,SE,124,0.0,0.0,82,0.00,CLR,,0.00,WeatherDisplay:10.37,2013-03-08 11:30:00,
2013-03-08 07:00:00,19.6,15.3,30.44,ESE,103,0.0,0.0,83,0.00,CLR,,0.00,WeatherDisplay:10.37,2013-03-08 12:00:00,
2013-03-08 07:15:00,19.6,15.3,30.44,ENE,68,0.0,0.0,83,0.00,CLR,,0.00,WeatherDisplay:10.37,2013-03-08 12:15:00,
2013-03-08 07:30:00,19.6,15.3,30.44,ENE,63,0.0,1.0,83,0.00,CLR,,0.00,WeatherDisplay:10.37,2013-03-08 12:30:00,
2013-03-08 07:45:00,19.6,15.3,30.44,NE,50,0.0,1.0,83,0.00,CLR,,0.00,WeatherDisplay:10.37,2013-03-08 12:45:00,
2013-03-08 08:00:00,19.6,15.3,30.44,ENE,68,2.0,3.0,83,0.00,CLR,,0.00,WeatherDisplay:10.37,2013-03-08 13:00:00,
2013-03-08 08:15:00,19.6,15.3,30.44,North,352,1.0,3.0,83,0.00,CLR,,0.00,WeatherDisplay:10.37,2013-03-08 13:15:00,
2013-03-08 08:30:00,22.8,19.0,30.44,WNW,292,0.0,2.0,85,0.00,CLR,,0.00,WeatherDisplay:10.37,2013-03-08 13:30:00,
2013-03-08 08:45:00,24.6,20.2,30.47,WNW,292,0.0,1.0,83,0.00,CLR,,0.00,WeatherDisplay:10.37,2013-03-08 13:45:00,
2013-03-08 09:00:00,26.4,21.7,30.49,WNW,285,0.0,1.0,82,0.00,CLR,,0.00,WeatherDisplay:10.37,2013-03-08 14:00:00,
2013-03-08 09:15:00,28.7,23.3,30.48,NNW,333,0.0,1.0,80,0.00,CLR,,0.00,WeatherDisplay:10.37,2013-03-08 14:15:00,
2013-03-08 09:30:00,31.1,24.4,30.47,ESE,113,0.0,2.0,76,0.00,CLR,,0.00,WeatherDisplay:10.37,2013-03-08 14:30:00,
2013-03-08 09:45:00,31.8,23.8,30.45,SE,129,2.0,5.0,72,0.00,CLR,,0.00,WeatherDisplay:10.37,2013-03-08 14:45:00,
2013-03-08 10:00:00,32.2,24.5,30.44,SE,127,2.0,6.0,73,0.00,CLR,,0.00,WeatherDisplay:10.37,2013-03-08 15:00:00,
2013-03-08 10:15:00,32.2,24.5,30.44,SE,145,3.0,6.0,73,0.00,CLR,,0.00,WeatherDisplay:10.37,2013-03-08 15:15:00,
2013-03-08 10:30:00,32.2,24.5,30.44,SE,145,3.0,6.0,73,0.00,CLR,,0.00,WeatherDisplay:10.37,2013-03-08 15:30:00,
2013-03-08 10:45:00,32.2,24.5,30.44,SSE,155,3.0,6.0,73,0.00,CLR,,0.00,WeatherDisplay:10.37,2013-03-08 15:45:00,
2013-03-08 11:00:00,36.9,25.8,30.44,SSW,200,2.0,6.0,64,0.00,CLR,,0.00,WeatherDisplay:10.37,2013-03-08 16:00:00,
2013-03-08 11:15:00,37.0,25.6,30.44,SSE,150,3.0,5.0,63,0.00,CLR,,0.00,WeatherDisplay:10.37,2013-03-08 16:15:00,
2013-03-08 11:30:00,37.0,25.2,30.44,South,181,5.0,8.0,62,0.00,CLR,,0.00,WeatherDisplay:10.37,2013-03-08 16:30:00,
2013-03-08 11:45:00,37.2,25.4,30.44,SSE,159,5.0,9.0,62,0.00,CLR,,0.00,WeatherDisplay:10.37,2013-03-08 16:45:00,
2013-03-08 12:00:00,37.6,25.7,30.43,SW,229,5.0,7.0,62,0.00,CLR,,0.00,WeatherDisplay:10.37,2013-03-08 17:00:00,
2013-03-08 12:15:00,37.7,25.8,30.43,South,187,3.0,7.0,62,0.00,CLR,,0.00,WeatherDisplay:10.37,2013-03-08 17:15:00,
2013-03-08 12:30:00,37.9,25.7,30.44,SSE,154,3.0,6.0,61,0.00,CLR,,0.00,WeatherDisplay:10.37,2013-03-08 17:30:00,
2013-03-08 12:45:00,38.3,25.6,30.43,South,174,3.0,7.0,60,0.00,CLR,,0.00,WeatherDisplay:10.37,2013-03-08 17:45:00,
2013-03-08 13:00:00,38.5,26.2,30.42,SW,214,3.0,7.0,61,0.00,CLR,,0.00,WeatherDisplay:10.37,2013-03-08 18:00:00,
2013-03-08 13:15:00,38.5,26.2,30.41,SSW,194,3.0,7.0,61,0.00,CLR,,0.00,WeatherDisplay:10.37,2013-03-08 18:15:00,
2013-03-08 13:30:00,38.7,26.8,30.41,SSW,197,5.0,7.0,62,0.00,CLR,,0.00,WeatherDisplay:10.37,2013-03-08 18:30:00,
2013-03-08 13:45:00,38.5,26.6,30.40,SSW,197,5.0,9.0,62,0.00,CLR,,0.00,WeatherDisplay:10.37,2013-03-08 18:45:00,
2013-03-08 14:00:00,38.7,26.8,30.40,WSW,248,7.0,10.0,62,0.00,CLR,,0.00,WeatherDisplay:10.37,2013-03-08 19:00:00,
2013-03-08 14:15:00,39.0,26.7,30.40,SSW,205,5.0,10.0,61,0.00,CLR,,0.00,WeatherDisplay:10.37,2013-03-08 19:15:00,
2013-03-08 14:30:00,39.0,26.7,30.40,SSW,194,3.0,7.0,61,0.00,CLR,,0.00,WeatherDisplay:10.37,2013-03-08 19:30:00,
2013-03-08 14:45:00,39.2,26.5,30.39,South,169,3.0,7.0,60,0.00,CLR,,0.00,WeatherDisplay:10.37,2013-03-08 19:45:00,
2013-03-08 15:00:00,39.4,26.6,30.39,SW,230,5.0,7.0,60,0.00,CLR,,0.00,WeatherDisplay:10.37,2013-03-08 20:00:00,
2013-03-08 15:15:00,39.5,26.4,30.39,SW,232,5.0,9.0,59,0.00,CLR,,0.00,WeatherDisplay:10.37,2013-03-08 20:15:00,
2013-03-08 15:30:00,39.7,26.2,30.39,WSW,254,6.0,9.0,58,0.00,FEW,,0.00,WeatherDisplay:10.37,2013-03-08 20:30:00,
2013-03-08 15:45:00,39.8,25.8,30.39,South,178,3.0,8.0,57,0.00,FEW,,0.00,WeatherDisplay:10.37,2013-03-08 20:45:00,
2013-03-08 16:00:00,40.5,26.4,30.38,SW,232,5.0,7.0,57,0.00,FEW,,0.00,WeatherDisplay:10.37,2013-03-08 21:00:00,
2013-03-08 16:15:00,40.4,25.9,30.38,SW,217,5.0,7.0,56,0.00,FEW,,0.00,WeatherDisplay:10.37,2013-03-08 21:15:00,
2013-03-08 16:30:00,40.6,26.2,30.38,SW,236,3.0,7.0,56,0.00,FEW,,0.00,WeatherDisplay:10.37,2013-03-08 21:30:00,
2013-03-08 16:45:00,40.4,25.9,30.37,SW,216,3.0,6.0,56,0.00,FEW,,0.00,WeatherDisplay:10.37,2013-03-08 21:45:00,
2013-03-08 17:00:00,40.6,26.2,30.38,WSW,238,3.0,6.0,56,0.00,FEW,,0.00,WeatherDisplay:10.37,2013-03-08 22:00:00,
2013-03-08 17:15:00,40.5,25.5,30.37,WSW,250,1.0,5.0,55,0.00,FEW,,0.00,WeatherDisplay:10.37,2013-03-08 22:15:00,
2013-03-08 17:30:00,40.3,25.8,30.37,SSW,194,2.0,6.0,56,0.00,FEW,,0.00,WeatherDisplay:10.37,2013-03-08 22:30:00,
2013-03-08 17:45:00,39.9,25.5,30.36,SW,214,2.0,6.0,56,0.00,FEW,,0.00,WeatherDisplay:10.37,2013-03-08 22:45:00,
2013-03-08 18:00:00,39.7,25.3,30.36,SSW,203,2.0,6.0,56,0.00,FEW,,0.00,WeatherDisplay:10.37,2013-03-08 23:00:00,
2013-03-08 18:15:00,39.2,25.2,30.36,SSE,168,2.0,6.0,57,0.00,FEW,,0.00,WeatherDisplay:10.37,2013-03-08 23:15:00,
2013-03-08 18:30:00,39.0,25.1,30.36,South,173,2.0,3.0,57,0.00,FEW,,0.00,WeatherDisplay:10.37,2013-03-08 23:30:00,
2013-03-08 18:45:00,38.4,24.5,30.35,East,96,0.0,4.0,57,0.00,FEW,,0.00,WeatherDisplay:10.37,2013-03-08 23:45:00,
2013-03-08 19:00:00,37.6,24.1,30.35,ESE,102,0.0,0.0,58,0.00,FEW,,0.00,WeatherDisplay:10.37,2013-03-09 00:00:00,
2013-03-08 19:15:00,36.4,23.4,30.36,NW,323,1.0,3.0,59,0.00,FEW,,0.00,WeatherDisplay:10.37,2013-03-09 00:15:00,
2013-03-08 19:30:00,35.8,24.0,30.36,WNW,299,0.0,3.0,62,0.00,FEW,,0.00,WeatherDisplay:10.37,2013-03-09 00:30:00,
2013-03-08 19:45:00,35.2,23.8,30.36,NW,311,0.0,0.0,63,0.00,FEW,,0.00,WeatherDisplay:10.37,2013-03-09 00:45:00,
2013-03-08 20:00:00,34.7,23.8,30.36,ESE,115,0.0,0.0,64,0.00,FEW,,0.00,WeatherDisplay:10.37,2013-03-09 01:00:00,
2013-03-08 20:15:00,34.2,24.0,30.36,ENE,73,0.0,0.0,66,0.00,CLR,,0.00,WeatherDisplay:10.37,2013-03-09 01:15:00,
2013-03-08 20:30:00,33.6,23.8,30.36,WNW,302,0.0,2.0,67,0.00,CLR,,0.00,WeatherDisplay:10.37,2013-03-09 01:30:00,
2013-03-08 20:45:00,33.0,23.6,30.38,NE,41,0.0,0.0,68,0.00,CLR,,0.00,WeatherDisplay:10.37,2013-03-09 01:45:00,
2013-03-08 21:00:00,32.5,23.5,30.37,ESE,108,0.0,0.0,69,0.00,CLR,,0.00,WeatherDisplay:10.37,2013-03-09 02:00:00,
2013-03-08 21:15:00,32.2,23.5,30.37,North,10,0.0,0.0,70,0.00,CLR,,0.00,WeatherDisplay:10.37,2013-03-09 02:15:00,
2013-03-08 21:30:00,31.6,23.3,30.37,WNW,303,0.0,0.0,71,0.00,CLR,,0.00,WeatherDisplay:10.37,2013-03-09 02:30:00,
2013-03-08 21:45:00,31.1,23.1,30.37,NE,44,0.0,0.0,72,0.00,CLR,,0.00,WeatherDisplay:10.37,2013-03-09 02:45:00,
2013-03-08 22:00:00,30.4,22.8,30.36,East,81,0.0,0.0,73,0.00,CLR,,0.00,WeatherDisplay:10.37,2013-03-09 03:00:00,
2013-03-08 22:15:00,30.0,22.7,30.36,NNE,28,0.0,0.0,74,0.00,CLR,,0.00,WeatherDisplay:10.37,2013-03-09 03:15:00,
2013-03-08 22:30:00,29.7,22.7,30.36,East,97,0.0,0.0,75,0.00,CLR,,0.00,WeatherDisplay:10.37,2013-03-09 03:30:00,
2013-03-08 22:45:00,29.7,23.0,30.36,West,270,0.0,0.0,76,0.00,CLR,,0.00,WeatherDisplay:10.37,2013-03-09 03:45:00,
2013-03-08 23:00:00,29.3,22.7,30.35,NE,34,0.0,0.0,76,0.00,CLR,,0.00,WeatherDisplay:10.37,2013-03-09 04:00:00,
2013-03-08 23:15:00,28.9,22.6,30.35,East,80,0.0,0.0,77,0.00,CLR,,0.00,WeatherDisplay:10.37,2013-03-09 04:15:00,
2013-03-08 23:30:00,28.8,22.5,30.35,North,359,0.0,0.0,77,0.00,CLR,,0.00,WeatherDisplay:10.37,2013-03-09 04:30:00,
2013-03-08 23:45:00,28.6,22.6,30.34,ENE,68,0.0,0.0,78,0.00,CLR,,0.00,WeatherDisplay:10.37,2013-03-09 04:45:00,